createdAt,value
2018-09-03T00:00:07.000Z,454.27
2018-09-03T00:02:35.584Z,457.83
2018-09-03T00:05:04.158Z,460.27
2018-09-03T00:07:32.653Z,488.47
2018-09-03T00:10:01.164Z,494.53
2018-09-03T00:12:29.668Z,503.10
2018-09-03T00:14:58.194Z,522.33
2018-09-03T00:17:26.673Z,524.80
2018-09-03T00:19:55.175Z,531.70
2018-09-03T00:22:23.639Z,537.83
2018-09-03T00:24:52.161Z,546.17
2018-09-03T00:27:20.681Z,528.03
2018-09-03T00:29:49.160Z,544.97
2018-09-03T00:32:23.024Z,541.97
2018-09-03T00:34:57.064Z,522.67
2018-09-03T00:37:30.789Z,538.23
2018-09-03T00:40:04.683Z,548.97
2018-09-03T00:42:38.598Z,546.20
2018-09-03T00:45:12.417Z,567.30
2018-09-03T00:47:40.955Z,544.50
2018-09-03T00:50:09.478Z,537.97
2018-09-03T00:52:37.996Z,535.00
2018-09-03T00:55:06.583Z,517.30
2018-09-03T00:57:35.106Z,538.57
2018-09-03T01:00:03.718Z,529.63
2018-09-03T01:02:32.258Z,529.50
2018-09-03T01:05:00.768Z,536.90
2018-09-03T01:07:29.315Z,553.03
2018-09-03T01:09:57.851Z,552.57
2018-09-03T01:12:26.347Z,534.63
2018-09-03T01:14:54.876Z,571.53
2018-09-03T01:17:23.371Z,548.17
2018-09-03T01:19:51.884Z,554.17
2018-09-03T01:22:20.398Z,585.80
2018-09-03T01:24:48.877Z,582.03
2018-09-03T01:27:17.444Z,568.33
2018-09-03T01:29:45.969Z,567.60
2018-09-03T01:32:14.474Z,555.30
2018-09-03T01:34:42.981Z,576.83
2018-09-03T01:37:11.517Z,555.33
2018-09-03T01:39:39.983Z,573.00
2018-09-03T01:42:08.528Z,592.93
2018-09-03T01:44:37.072Z,591.63
2018-09-03T01:47:05.649Z,591.40
2018-09-03T01:49:34.261Z,600.97
2018-09-03T01:52:02.767Z,587.90
2018-09-03T01:54:31.412Z,596.00
2018-09-03T01:56:59.958Z,622.50
2018-09-03T01:59:28.457Z,602.30
2018-09-03T02:01:56.996Z,610.40
2018-09-03T02:04:25.494Z,621.70
2018-09-03T02:06:54.036Z,598.27
2018-09-03T02:09:22.563Z,610.67
2018-09-03T02:11:51.076Z,605.37
2018-09-03T02:14:19.591Z,593.37
2018-09-03T02:16:48.144Z,603.60
2018-09-03T02:19:16.705Z,595.80
2018-09-03T02:21:45.215Z,610.60
2018-09-03T02:24:13.708Z,607.03
2018-09-03T02:26:42.247Z,644.57
2018-09-03T02:29:10.717Z,625.60
2018-09-03T02:31:39.236Z,634.70
2018-09-03T02:34:07.718Z,630.67
2018-09-03T02:36:36.209Z,638.90
2018-09-03T02:39:06.251Z,639.93
2018-09-03T02:41:34.798Z,627.87
2018-09-03T02:44:03.304Z,604.60
2018-09-03T02:46:31.848Z,614.17
2018-09-03T02:49:00.355Z,594.20
2018-09-03T02:51:28.969Z,612.10
2018-09-03T02:53:57.474Z,563.27
2018-09-03T02:56:26.020Z,610.57
2018-09-03T02:58:54.556Z,589.03
2018-09-03T03:01:23.055Z,589.47
2018-09-03T03:03:51.513Z,602.23
2018-09-03T03:06:20.065Z,606.03
2018-09-03T03:08:48.597Z,600.33
2018-09-03T03:11:17.179Z,597.33
2018-09-03T03:13:45.829Z,577.70
2018-09-03T03:16:14.361Z,567.97
2018-09-03T03:18:42.879Z,572.90
2018-09-03T03:21:11.481Z,556.50
2018-09-03T03:23:39.996Z,582.67
2018-09-03T03:26:08.506Z,584.57
2018-09-03T03:28:36.984Z,583.60
2018-09-03T03:31:05.712Z,571.57
2018-09-03T03:33:34.369Z,591.33
2018-09-03T03:36:02.888Z,550.07
2018-09-03T03:38:31.412Z,575.47
2018-09-03T03:41:00.144Z,547.47
2018-09-03T03:43:29.152Z,509.37
2018-09-03T03:45:57.615Z,522.93
2018-09-03T03:48:26.175Z,534.53
2018-09-03T03:50:55.381Z,481.50
2018-09-03T03:53:23.978Z,474.97
2018-09-03T03:55:52.512Z,455.07
2018-09-03T03:58:21.132Z,423.33
2018-09-03T04:00:49.800Z,422.80
2018-09-03T04:03:18.313Z,408.07
2018-09-03T04:05:46.876Z,363.90
2018-09-03T04:08:15.336Z,345.77
2018-09-03T04:10:43.824Z,368.07
2018-09-03T04:13:12.433Z,325.97
2018-09-03T04:15:40.881Z,327.43
2018-09-03T04:18:09.393Z,277.93
2018-09-03T04:20:37.938Z,276.80
2018-09-03T04:23:06.496Z,219.90
2018-09-03T04:25:35.073Z,205.83
2018-09-03T04:28:03.629Z,210.53
2018-09-03T04:30:32.203Z,215.37
2018-09-03T04:33:00.775Z,219.53
2018-09-03T04:35:29.249Z,217.03
2018-09-03T04:37:57.764Z,190.53
2018-09-03T04:40:26.263Z,221.23
2018-09-03T04:42:54.834Z,215.67
2018-09-03T04:45:23.399Z,223.03
2018-09-03T04:47:51.962Z,207.80
2018-09-03T04:50:20.440Z,217.03
2018-09-03T04:52:48.970Z,180.53
2018-09-03T04:55:17.477Z,175.10
2018-09-03T04:57:46.031Z,176.13
2018-09-03T05:00:15.560Z,174.43
2018-09-03T05:02:44.328Z,162.53
2018-09-03T05:05:12.941Z,113.43
2018-09-03T05:07:41.404Z,126.23
2018-09-03T05:10:09.940Z,107.70
2018-09-03T05:12:38.504Z,120.03
2018-09-03T05:15:07.037Z,111.60
2018-09-03T05:17:35.599Z,129.20
2018-09-03T05:20:04.110Z,152.17
2018-09-03T05:22:32.649Z,199.90
2018-09-03T05:25:01.237Z,229.67
2018-09-03T05:27:29.699Z,213.00
2018-09-03T05:29:58.370Z,298.73
2018-09-03T05:32:26.833Z,316.73
2018-09-03T05:34:55.408Z,332.73
2018-09-03T05:37:23.974Z,368.20
2018-09-03T05:39:52.484Z,467.43
2018-09-03T05:42:21.070Z,469.37
2018-09-03T05:44:49.654Z,442.13
2018-09-03T05:47:18.121Z,453.50
2018-09-03T05:49:46.698Z,437.10
2018-09-03T05:52:15.165Z,446.07
2018-09-03T05:54:43.730Z,464.83
2018-09-03T05:57:12.577Z,427.30
2018-09-03T05:59:41.078Z,414.23
2018-09-03T06:02:09.723Z,430.90
2018-09-03T06:04:38.306Z,399.50
2018-09-03T06:07:06.829Z,420.70
2018-09-03T06:09:35.349Z,414.33
2018-09-03T06:12:03.834Z,376.00
2018-09-03T06:14:32.353Z,344.10
2018-09-03T06:17:00.991Z,347.33
2018-09-03T06:19:29.464Z,340.33
2018-09-03T06:21:58.080Z,331.93
2018-09-03T06:24:26.601Z,369.23
2018-09-03T06:26:55.148Z,345.23
2018-09-03T06:29:23.648Z,342.07
2018-09-03T06:31:52.156Z,355.93
2018-09-03T06:34:20.754Z,361.80
2018-09-03T06:36:49.477Z,340.03
2018-09-03T06:39:18.147Z,335.30
2018-09-03T06:41:46.671Z,379.73
2018-09-03T06:44:15.253Z,373.43
2018-09-03T06:46:43.819Z,363.40
2018-09-03T06:49:12.348Z,335.20
2018-09-03T06:51:41.041Z,288.30
2018-09-03T06:54:09.544Z,197.70
2018-09-03T06:56:38.016Z,105.37
2018-09-03T06:59:06.545Z,69.73
2018-09-03T07:01:35.014Z,64.60
2018-09-03T07:04:03.568Z,58.03
2018-09-03T07:06:32.071Z,58.40
2018-09-03T07:09:00.651Z,63.60
2018-09-03T07:11:29.174Z,59.40
2018-09-03T07:13:57.680Z,61.90
2018-09-03T07:16:26.231Z,67.43
2018-09-03T07:18:54.749Z,69.23
2018-09-03T07:21:23.239Z,69.63
2018-09-03T07:23:51.708Z,67.40
2018-09-03T07:26:20.247Z,81.00
2018-09-03T07:28:48.819Z,101.83
2018-09-03T07:31:17.646Z,134.13
2018-09-03T07:33:46.181Z,205.47
2018-09-03T07:36:14.838Z,296.73
2018-09-03T07:38:43.409Z,417.87
2018-09-03T07:41:12.430Z,550.97
2018-09-03T07:43:41.135Z,592.73
2018-09-03T07:46:09.692Z,568.00
2018-09-03T07:48:38.159Z,538.37
2018-09-03T07:51:06.717Z,555.33
2018-09-03T07:53:35.216Z,663.53
2018-09-03T07:56:03.737Z,684.87
2018-09-03T07:58:32.262Z,751.17
2018-09-03T08:01:00.747Z,803.07
2018-09-03T08:03:29.281Z,873.73
2018-09-03T08:05:57.953Z,896.17
2018-09-03T08:08:26.474Z,842.27
2018-09-03T08:10:55.036Z,854.00
2018-09-03T08:13:28.930Z,766.07
2018-09-03T08:15:57.441Z,694.30
2018-09-03T08:18:25.977Z,635.97
2018-09-03T08:20:54.716Z,658.00
2018-09-03T08:23:23.180Z,666.33
2018-09-03T08:25:51.722Z,651.97
2018-09-03T08:28:20.240Z,684.43
2018-09-03T08:30:48.782Z,700.40
2018-09-03T08:33:17.267Z,665.17
2018-09-03T08:35:45.875Z,631.23
2018-09-03T08:38:14.416Z,583.13
2018-09-03T08:40:43.227Z,565.50
2018-09-03T08:43:11.698Z,558.90
2018-09-03T08:45:40.236Z,541.50
2018-09-03T08:48:08.816Z,525.67
2018-09-03T08:50:37.308Z,543.13
2018-09-03T08:53:06.121Z,542.70
2018-09-03T08:55:34.647Z,533.03
2018-09-03T08:58:03.222Z,568.17
2018-09-03T09:00:31.748Z,551.57
2018-09-03T09:03:00.271Z,548.77
2018-09-03T09:05:28.826Z,540.40
2018-09-03T09:07:57.361Z,587.97
2018-09-03T09:10:25.879Z,689.47
2018-09-03T09:12:54.456Z,693.63
2018-09-03T09:15:23.003Z,713.97
2018-09-03T09:17:52.861Z,731.13
2018-09-03T09:20:21.461Z,713.10
2018-09-03T09:22:49.956Z,709.47
2018-09-03T09:25:18.476Z,699.77
2018-09-03T09:27:46.992Z,685.17
2018-09-03T09:30:15.516Z,708.13
2018-09-03T09:32:44.067Z,726.93
2018-09-03T09:35:12.535Z,778.43
2018-09-03T09:37:41.023Z,790.77
2018-09-03T09:40:09.645Z,797.33
2018-09-03T09:42:40.170Z,777.43
2018-09-03T09:45:08.989Z,812.60
2018-09-03T09:47:37.481Z,815.60
2018-09-03T09:50:06.067Z,841.40
2018-09-03T09:52:34.679Z,872.00
2018-09-03T09:55:03.661Z,844.80
2018-09-03T09:57:32.213Z,865.00
2018-09-03T10:00:00.713Z,862.43
2018-09-03T10:02:29.228Z,833.70
2018-09-03T10:04:57.751Z,868.63
2018-09-03T10:07:26.251Z,870.53
2018-09-03T10:09:54.762Z,908.50
2018-09-03T10:12:28.679Z,901.33
2018-09-03T10:14:57.189Z,930.37
2018-09-03T10:17:25.706Z,943.63
2018-09-03T10:19:54.223Z,965.23
2018-09-03T10:22:22.752Z,958.20
2018-09-03T10:24:51.253Z,955.50
2018-09-03T10:27:19.790Z,943.53
2018-09-03T10:29:48.313Z,944.57
2018-09-03T10:32:17.042Z,941.93
2018-09-03T10:34:48.828Z,906.33
2018-09-03T10:37:17.380Z,896.67
2018-09-03T10:39:45.860Z,930.53
2018-09-03T10:42:16.884Z,878.10
2018-09-03T10:44:45.392Z,860.00
2018-09-03T10:47:14.160Z,846.03
2018-09-03T10:49:42.636Z,828.70
2018-09-03T10:52:11.246Z,866.23
2018-09-03T10:54:39.802Z,827.27
2018-09-03T10:57:08.323Z,836.53
2018-09-03T10:59:40.841Z,814.87
2018-09-03T11:02:10.946Z,858.83
2018-09-03T11:04:39.552Z,831.53
2018-09-03T11:07:08.512Z,827.43
2018-09-03T11:09:37.229Z,810.37
2018-09-03T11:12:07.084Z,846.63
2018-09-03T11:14:35.616Z,841.53
2018-09-03T11:17:04.239Z,860.77
2018-09-03T11:19:35.261Z,824.10
2018-09-03T11:22:03.900Z,855.93
2018-09-03T11:24:32.416Z,855.37
2018-09-03T11:27:00.938Z,853.70
2018-09-03T11:29:29.425Z,829.77
2018-09-03T11:31:57.955Z,863.97
2018-09-03T11:34:27.505Z,884.60
2018-09-03T11:36:55.964Z,882.93
2018-09-03T11:39:24.480Z,881.57
2018-09-03T11:41:53.035Z,863.90
2018-09-03T11:44:21.544Z,863.50
2018-09-03T11:46:50.051Z,873.50
2018-09-03T11:49:18.569Z,864.63
2018-09-03T11:51:47.063Z,855.97
2018-09-03T11:54:15.531Z,881.67
2018-09-03T11:56:44.019Z,862.33
2018-09-03T11:59:12.492Z,837.87
2018-09-03T12:01:41.009Z,860.27
2018-09-03T12:04:09.560Z,865.57
2018-09-03T12:06:38.148Z,860.03
2018-09-03T12:09:08.642Z,851.90
2018-09-03T12:11:37.363Z,882.93
2018-09-03T12:14:12.176Z,884.60
2018-09-03T12:16:40.721Z,873.63
2018-09-03T12:19:09.864Z,896.77
2018-09-03T12:21:38.364Z,886.47
2018-09-03T12:24:06.867Z,888.43
2018-09-03T12:26:35.324Z,894.67
2018-09-03T12:29:05.168Z,888.73
2018-09-03T12:31:33.740Z,881.57
2018-09-03T12:34:02.239Z,877.27
2018-09-03T12:36:30.708Z,916.40
2018-09-03T12:38:59.197Z,899.57
2018-09-03T12:41:27.765Z,908.73
2018-09-03T12:43:56.367Z,909.40
2018-09-03T12:46:24.976Z,920.90
2018-09-03T12:48:53.695Z,934.10
2018-09-03T12:51:22.310Z,919.23
2018-09-03T12:53:50.754Z,928.80
2018-09-03T12:56:19.324Z,934.30
2018-09-03T12:58:47.900Z,933.00
2018-09-03T13:01:16.560Z,934.67
2018-09-03T13:03:45.085Z,947.37
2018-09-03T13:06:13.653Z,924.17
2018-09-03T13:08:42.182Z,922.20
2018-09-03T13:11:10.699Z,896.60
2018-09-03T13:13:39.226Z,893.17
2018-09-03T13:16:07.754Z,903.70
2018-09-03T13:18:36.262Z,905.30
2018-09-03T13:21:04.804Z,880.87
2018-09-03T13:23:33.295Z,872.07
2018-09-03T13:26:01.840Z,903.00
2018-09-03T13:28:30.306Z,890.80
2018-09-03T13:30:58.781Z,902.73
2018-09-03T13:33:27.309Z,891.47
2018-09-03T13:35:55.786Z,887.47
2018-09-03T13:38:24.310Z,897.40
2018-09-03T13:40:52.826Z,898.90
2018-09-03T13:43:21.373Z,890.33
2018-09-03T13:45:49.894Z,875.90
2018-09-03T13:48:18.478Z,899.87
2018-09-03T13:50:47.161Z,902.80
2018-09-03T13:53:15.646Z,897.00
2018-09-03T13:55:44.157Z,923.37
2018-09-03T13:58:12.625Z,927.77
2018-09-03T14:00:41.157Z,900.30
2018-09-03T14:03:09.647Z,910.43
2018-09-03T14:05:38.207Z,897.73
2018-09-03T14:08:06.691Z,891.77
2018-09-03T14:10:35.316Z,889.93
2018-09-03T14:13:03.799Z,883.63
2018-09-03T14:15:32.310Z,873.27
2018-09-03T14:18:00.800Z,878.70
2018-09-03T14:20:29.312Z,898.30
2018-09-03T14:22:57.751Z,932.50
2018-09-03T14:25:26.304Z,924.90
2018-09-03T14:27:54.774Z,909.70
2018-09-03T14:30:23.237Z,907.73
2018-09-03T14:32:51.737Z,899.83
2018-09-03T14:35:20.227Z,910.90
2018-09-03T14:37:48.725Z,872.33
2018-09-03T14:40:17.261Z,799.33
2018-09-03T14:42:46.150Z,677.93
2018-09-03T14:45:14.680Z,646.80
2018-09-03T14:47:43.136Z,641.10
2018-09-03T14:50:11.636Z,681.73
2018-09-03T14:52:40.230Z,690.23
2018-09-03T14:55:08.737Z,720.40
2018-09-03T14:57:37.219Z,752.80
2018-09-03T15:00:06.775Z,748.90
2018-09-03T15:02:35.256Z,739.20
2018-09-03T15:05:03.864Z,754.90
2018-09-03T15:07:32.360Z,749.90
2018-09-03T15:10:00.816Z,752.50
2018-09-03T15:12:29.335Z,759.17
2018-09-03T15:14:57.818Z,757.60
2018-09-03T15:17:26.286Z,764.53
2018-09-03T15:19:54.727Z,756.50
2018-09-03T15:22:23.268Z,757.80
2018-09-03T15:24:51.781Z,758.00
2018-09-03T15:27:20.273Z,764.63
2018-09-03T15:29:48.790Z,762.20
2018-09-03T15:32:17.256Z,758.43
2018-09-03T15:34:45.757Z,754.97
2018-09-03T15:37:14.243Z,748.57
2018-09-03T15:39:42.710Z,767.07
2018-09-03T15:42:11.215Z,771.63
2018-09-03T15:44:39.700Z,758.07
2018-09-03T15:47:08.480Z,759.10
2018-09-03T15:49:36.946Z,759.70
2018-09-03T15:52:05.547Z,765.90
2018-09-03T15:54:34.044Z,755.73
2018-09-03T15:57:02.578Z,751.40
2018-09-03T15:59:31.099Z,743.40
2018-09-03T16:01:59.616Z,718.77
2018-09-03T16:04:28.090Z,742.10
2018-09-03T16:06:56.606Z,765.80
2018-09-03T16:12:00.003Z,898.73
2018-09-03T16:14:28.515Z,928.67
2018-09-03T16:16:57.092Z,915.37
2018-09-03T16:19:25.608Z,918.13
2018-09-03T16:21:54.058Z,921.53
2018-09-03T16:24:22.528Z,907.37
2018-09-03T16:26:51.063Z,905.27
2018-09-03T16:29:19.630Z,905.20
2018-09-03T16:31:48.166Z,909.73
2018-09-03T16:34:16.656Z,911.23
2018-09-03T16:36:45.168Z,923.03
2018-09-03T16:39:13.655Z,924.47
2018-09-03T16:41:42.154Z,921.00
2018-09-03T16:44:10.591Z,914.07
2018-09-03T16:46:39.386Z,930.03
2018-09-03T16:49:07.930Z,937.43
2018-09-03T16:51:36.479Z,936.07
2018-09-03T16:54:05.009Z,936.00
2018-09-03T16:56:33.627Z,932.13
2018-09-03T16:59:02.125Z,915.83
2018-09-03T17:01:30.801Z,909.87
2018-09-03T17:03:59.129Z,916.80
2018-09-03T17:06:27.624Z,916.23
2018-09-03T17:08:56.056Z,918.77
2018-09-03T17:11:24.636Z,895.97
2018-09-03T17:13:53.074Z,871.70
2018-09-03T17:16:21.568Z,878.73
2018-09-03T17:18:50.057Z,865.30
2018-09-03T17:21:18.535Z,851.67
2018-09-03T17:23:46.986Z,857.07
2018-09-03T17:26:15.471Z,848.77
2018-09-03T17:28:43.963Z,848.23
2018-09-03T17:31:12.426Z,846.80
2018-09-03T17:33:40.899Z,817.60
2018-09-03T17:36:09.403Z,810.90
2018-09-03T17:38:37.907Z,820.00
2018-09-03T17:41:06.350Z,824.60
2018-09-03T17:43:34.842Z,810.67
2018-09-03T17:46:03.323Z,807.77
2018-09-03T17:48:31.800Z,796.77
2018-09-03T17:51:00.307Z,796.37
2018-09-03T17:53:28.751Z,801.27
2018-09-03T17:55:57.325Z,841.23
2018-09-03T17:58:25.859Z,867.70
2018-09-03T18:00:54.396Z,893.77
2018-09-03T18:03:22.909Z,916.57
2018-09-03T18:05:51.593Z,938.73
2018-09-03T18:08:20.908Z,924.53
2018-09-03T18:10:49.517Z,946.37
2018-09-03T18:13:18.026Z,948.57
2018-09-03T18:15:46.503Z,945.23
2018-09-03T18:18:15.052Z,962.27
2018-09-03T18:20:43.570Z,967.87
2018-09-03T18:23:12.077Z,969.10
2018-09-03T18:25:40.729Z,989.93
2018-09-03T18:28:09.255Z,971.27
2018-09-03T18:30:37.714Z,974.13
2018-09-03T18:33:06.235Z,984.50
2018-09-03T18:35:34.682Z,972.80
2018-09-03T18:38:03.197Z,982.77
2018-09-03T18:40:31.656Z,980.80
2018-09-03T18:43:00.179Z,978.60
2018-09-03T18:45:28.679Z,980.80
2018-09-03T18:47:57.168Z,993.77
2018-09-03T18:50:25.683Z,978.33
2018-09-03T18:52:54.212Z,975.47
2018-09-03T18:55:22.773Z,950.43
2018-09-03T18:57:51.262Z,946.13
2018-09-03T19:00:19.826Z,944.83
2018-09-03T19:02:48.240Z,960.73
2018-09-03T19:05:16.725Z,951.40
2018-09-03T19:07:45.238Z,940.50
2018-09-03T19:10:13.681Z,930.33
2018-09-03T19:12:42.175Z,930.00
2018-09-03T19:15:10.653Z,933.03
2018-09-03T19:17:39.136Z,928.33
2018-09-03T19:20:07.657Z,900.50
2018-09-03T19:22:36.172Z,892.07
2018-09-03T19:25:04.787Z,904.83
2018-09-03T19:27:33.308Z,895.47
2018-09-03T19:30:01.801Z,896.03
2018-09-03T19:32:30.286Z,911.40
2018-09-03T19:34:58.781Z,919.23
2018-09-03T19:37:27.271Z,896.70
2018-09-03T19:39:55.783Z,893.50
2018-09-03T19:42:24.235Z,884.07
2018-09-03T19:44:52.735Z,893.93
2018-09-03T19:47:21.249Z,901.17
2018-09-03T19:49:49.687Z,879.73
2018-09-03T19:52:18.164Z,880.50
2018-09-03T19:54:46.595Z,879.20
2018-09-03T19:57:15.058Z,880.80
2018-09-03T19:59:43.642Z,876.13
2018-09-03T20:02:13.057Z,895.47
2018-09-03T20:04:41.596Z,875.80
2018-09-03T20:07:10.123Z,885.43
2018-09-03T20:09:38.594Z,870.43
2018-09-03T20:12:07.136Z,872.50
2018-09-03T20:14:35.742Z,884.63
2018-09-03T20:17:04.465Z,869.47
2018-09-03T20:19:32.935Z,879.63
2018-09-03T20:22:01.454Z,891.13
2018-09-03T20:24:29.946Z,881.77
2018-09-03T20:26:58.436Z,880.30
2018-09-03T20:29:26.923Z,865.10
2018-09-03T20:31:55.427Z,873.53
2018-09-03T20:34:23.919Z,888.17
2018-09-03T20:36:52.485Z,880.43
2018-09-03T20:39:20.991Z,872.40
2018-09-03T20:41:49.528Z,874.13
2018-09-03T20:44:18.031Z,863.57
2018-09-03T20:46:46.576Z,870.50
2018-09-03T20:49:15.056Z,865.23
2018-09-03T20:51:43.714Z,874.90
2018-09-03T20:54:12.205Z,883.57
2018-09-03T20:56:40.802Z,883.37
2018-09-03T20:59:09.579Z,895.80
2018-09-03T21:01:38.539Z,910.30
2018-09-03T21:04:07.038Z,904.10
2018-09-03T21:06:35.525Z,886.77
2018-09-03T21:09:05.327Z,910.33
2018-09-03T21:11:34.008Z,893.90
2018-09-03T21:14:02.638Z,908.03
2018-09-03T21:16:31.353Z,924.33
2018-09-03T21:18:59.863Z,928.63
2018-09-03T21:21:28.382Z,904.77
2018-09-03T21:23:56.950Z,898.27
2018-09-03T21:26:26.127Z,905.10
2018-09-03T21:28:54.627Z,912.50
2018-09-03T21:31:23.215Z,924.77
2018-09-03T21:33:51.726Z,903.67
2018-09-03T21:36:21.340Z,914.10
2018-09-03T21:38:49.959Z,904.20
2018-09-03T21:41:18.456Z,920.63
2018-09-03T21:43:47.206Z,905.33
2018-09-03T21:46:15.699Z,913.47
2018-09-03T21:48:44.190Z,881.83
2018-09-03T21:51:12.747Z,865.30
2018-09-03T21:53:41.227Z,866.73
2018-09-03T21:56:09.803Z,823.20
2018-09-03T21:58:38.467Z,821.60
2018-09-03T22:01:06.919Z,788.83
2018-09-03T22:03:36.210Z,778.10
2018-09-03T22:06:04.839Z,771.13
2018-09-03T22:08:34.896Z,757.07
2018-09-03T22:11:03.278Z,785.60
2018-09-03T22:13:33.137Z,777.83
2018-09-03T22:16:02.388Z,769.90
2018-09-03T22:18:30.993Z,749.37
2018-09-03T22:20:59.487Z,755.83
2018-09-03T22:23:28.847Z,774.97
2018-09-03T22:25:57.577Z,781.20
2018-09-03T22:28:26.326Z,748.00
2018-09-03T22:30:54.812Z,765.60
2018-09-03T22:33:24.246Z,765.97
2018-09-03T22:35:52.758Z,759.93
2018-09-03T22:38:21.314Z,780.00
2018-09-03T22:40:49.928Z,752.03
2018-09-03T22:43:18.427Z,767.20
2018-09-03T22:45:47.119Z,758.70
2018-09-03T22:48:16.184Z,768.80
2018-09-03T22:50:44.707Z,771.60
2018-09-03T22:53:14.032Z,782.40
2018-09-03T22:55:42.675Z,775.47
2018-09-03T22:58:11.265Z,763.03
2018-09-03T23:00:39.883Z,776.50
2018-09-03T23:03:08.389Z,785.17
2018-09-03T23:05:37.026Z,767.57
2018-09-03T23:08:05.680Z,771.87
2018-09-03T23:10:34.158Z,769.63
2018-09-03T23:13:02.706Z,765.77
2018-09-03T23:15:31.612Z,764.27
2018-09-03T23:18:01.103Z,767.87
2018-09-03T23:20:29.626Z,755.63
2018-09-03T23:22:59.064Z,760.37
2018-09-03T23:25:27.590Z,767.93
2018-09-03T23:27:56.139Z,739.47
2018-09-03T23:30:31.119Z,772.37
2018-09-03T23:32:59.580Z,758.00
2018-09-03T23:35:28.066Z,760.10
2018-09-03T23:37:56.532Z,771.10
2018-09-03T23:40:25.050Z,793.33
2018-09-03T23:42:53.683Z,789.80
2018-09-03T23:45:22.207Z,780.87
2018-09-03T23:47:50.686Z,785.93
2018-09-03T23:50:19.193Z,768.77
2018-09-03T23:52:47.700Z,772.37
2018-09-03T23:55:16.184Z,761.07
2018-09-03T23:57:44.785Z,784.13
